ACA872 CYYZ-EDDF
Flight info
| Callsign | ACA872 |
|---|---|
| Flight time | N/A |
| Altitude | 31000 |
| Route | SEDOG6 BOBSU DCT BAREE N647B RIKAL/M083F330 NATS NETKI/N0477F350 DCT MORAG DCT NUCHU L607 KONAN UL607 SPI T180 NIVNU T847 IMCOM IMCOM2C |
| Aircraft | L101/H-SDFGHIRWXY/S |
Departure
| Time | 2026-05-07 23:57 |
|---|---|
| Airport | Toronto Pearson International Airport (CYYZ) |
Arrival
| Time | N/A |
|---|---|
| Airport | Frankfurt Main Airport (EDDF) |
| Time | Latitude | Longitude | Altitude | Speed | Heading |
|---|---|---|---|---|---|
| 2026-05-07 23:03 | 43.67730 | -79.61373 | 561 ft | 0 kts | 120° |
| 2026-05-07 23:37 | 43.67738 | -79.61392 | 571 ft | 4 kts | 124° |
| 2026-05-07 23:38 | 43.67755 | -79.61422 | 571 ft | 4 kts | 134° |
| 2026-05-07 23:38 | 43.67775 | -79.61444 | 571 ft | 4 kts | 161° |
| 2026-05-07 23:38 | 43.67795 | -79.61445 | 569 ft | 2 kts | 225° |
| 2026-05-07 23:38 | 43.67796 | -79.61444 | 569 ft | 0 kts | 226° |
| 2026-05-07 23:43 | 43.67794 | -79.61446 | 561 ft | 1 kts | 226° |
| 2026-05-07 23:43 | 43.67788 | -79.61456 | 561 ft | 3 kts | 227° |
| 2026-05-07 23:44 | 43.67778 | -79.61471 | 569 ft | 2 kts | 227° |
| 2026-05-07 23:44 | 43.67759 | -79.61499 | 565 ft | 5 kts | 227° |
| 2026-05-07 23:44 | 43.67729 | -79.61544 | 570 ft | 7 kts | 227° |
| 2026-05-07 23:44 | 43.67690 | -79.61598 | 566 ft | 9 kts | 225° |
| 2026-05-07 23:45 | 43.67645 | -79.61658 | 566 ft | 7 kts | 219° |
| 2026-05-07 23:45 | 43.67607 | -79.61702 | 569 ft | 7 kts | 221° |
| 2026-05-07 23:45 | 43.67574 | -79.61735 | 577 ft | 5 kts | 208° |
| 2026-05-07 23:45 | 43.67555 | -79.61738 | 573 ft | 2 kts | 178° |
| 2026-05-07 23:46 | 43.67540 | -79.61732 | 578 ft | 0 kts | 157° |
| 2026-05-07 23:46 | 43.67530 | -79.61725 | 578 ft | 3 kts | 151° |
| 2026-05-07 23:46 | 43.67506 | -79.61702 | 577 ft | 6 kts | 140° |
| 2026-05-07 23:46 | 43.67464 | -79.61645 | 575 ft | 10 kts | 135° |
| 2026-05-07 23:47 | 43.67406 | -79.61568 | 573 ft | 13 kts | 136° |
| 2026-05-07 23:47 | 43.67334 | -79.61472 | 574 ft | 16 kts | 136° |
| 2026-05-07 23:47 | 43.67251 | -79.61439 | 576 ft | 11 kts | 210° |
| 2026-05-07 23:47 | 43.67190 | -79.61506 | 577 ft | 12 kts | 220° |
| 2026-05-07 23:48 | 43.67129 | -79.61584 | 578 ft | 13 kts | 226° |
| 2026-05-07 23:48 | 43.67064 | -79.61697 | 575 ft | 18 kts | 264° |
| 2026-05-07 23:48 | 43.67133 | -79.61836 | 573 ft | 19 kts | 316° |
| 2026-05-07 23:48 | 43.67235 | -79.61970 | 574 ft | 21 kts | 316° |
| 2026-05-07 23:49 | 43.67357 | -79.62127 | 569 ft | 26 kts | 317° |
| 2026-05-07 23:49 | 43.67498 | -79.62315 | 571 ft | 29 kts | 317° |
| 2026-05-07 23:49 | 43.67638 | -79.62495 | 570 ft | 26 kts | 316° |
| 2026-05-07 23:49 | 43.67759 | -79.62653 | 569 ft | 22 kts | 316° |
| 2026-05-07 23:50 | 43.67864 | -79.62789 | 573 ft | 19 kts | 317° |
| 2026-05-07 23:50 | 43.67956 | -79.62908 | 575 ft | 17 kts | 317° |
| 2026-05-07 23:50 | 43.68040 | -79.63017 | 574 ft | 16 kts | 317° |
| 2026-05-07 23:50 | 43.68121 | -79.63121 | 575 ft | 16 kts | 317° |
| 2026-05-07 23:51 | 43.68203 | -79.63228 | 574 ft | 17 kts | 316° |
| 2026-05-07 23:51 | 43.68302 | -79.63358 | 572 ft | 22 kts | 315° |
| 2026-05-07 23:51 | 43.68425 | -79.63521 | 576 ft | 26 kts | 316° |
| 2026-05-07 23:51 | 43.68561 | -79.63699 | 575 ft | 26 kts | 316° |
| 2026-05-07 23:52 | 43.68670 | -79.63873 | 580 ft | 22 kts | 279° |
| 2026-05-07 23:52 | 43.68674 | -79.64086 | 573 ft | 22 kts | 271° |
| 2026-05-07 23:52 | 43.68616 | -79.64264 | 579 ft | 21 kts | 225° |
| 2026-05-07 23:52 | 43.68509 | -79.64417 | 576 ft | 22 kts | 226° |
| 2026-05-07 23:53 | 43.68403 | -79.64572 | 579 ft | 22 kts | 226° |
| 2026-05-07 23:53 | 43.68297 | -79.64726 | 580 ft | 21 kts | 226° |
| 2026-05-07 23:53 | 43.68193 | -79.64874 | 574 ft | 22 kts | 226° |
| 2026-05-07 23:53 | 43.68082 | -79.65035 | 578 ft | 24 kts | 226° |
| 2026-05-07 23:54 | 43.67962 | -79.65210 | 577 ft | 25 kts | 226° |
| 2026-05-07 23:54 | 43.67844 | -79.65382 | 575 ft | 24 kts | 226° |
| 2026-05-07 23:54 | 43.67733 | -79.65542 | 579 ft | 22 kts | 226° |
| 2026-05-07 23:54 | 43.67630 | -79.65691 | 581 ft | 21 kts | 226° |
| 2026-05-07 23:55 | 43.67532 | -79.65834 | 579 ft | 21 kts | 226° |
| 2026-05-07 23:55 | 43.67429 | -79.65982 | 578 ft | 21 kts | 226° |
| 2026-05-07 23:55 | 43.67324 | -79.66134 | 569 ft | 23 kts | 226° |
| 2026-05-07 23:55 | 43.67317 | -79.66297 | 568 ft | 18 kts | 319° |
| 2026-05-07 23:56 | 43.67424 | -79.66370 | 571 ft | 16 kts | 8° |
| 2026-05-07 23:56 | 43.67484 | -79.66310 | 574 ft | 5 kts | 47° |
| 2026-05-07 23:56 | 43.67502 | -79.66283 | 572 ft | 11 kts | 47° |
| 2026-05-07 23:56 | 43.67679 | -79.66021 | 579 ft | 66 kts | 44° |
| 2026-05-07 23:57 | 43.68137 | -79.65365 | 572 ft | 123 kts | 46° |
| 2026-05-07 23:57 | 43.68846 | -79.64344 | 632 ft | 166 kts | 45° |
| 2026-05-07 23:57 | 43.69677 | -79.63163 | 1216 ft | 174 kts | 45° |
| 2026-05-07 23:57 | 43.70615 | -79.62130 | 1994 ft | 174 kts | 32° |
| 2026-05-07 23:58 | 43.71659 | -79.61213 | 2657 ft | 181 kts | 30° |
| 2026-05-07 23:58 | 43.72737 | -79.60166 | 3177 ft | 199 kts | 34° |
| 2026-05-07 23:58 | 43.73865 | -79.58933 | 3641 ft | 213 kts | 37° |
| 2026-05-07 23:58 | 43.75043 | -79.57604 | 4132 ft | 224 kts | 37° |
| 2026-05-07 23:59 | 43.76266 | -79.56221 | 4693 ft | 231 kts | 34° |
| 2026-05-07 23:59 | 43.77732 | -79.55285 | 5164 ft | 236 kts | 9° |
| 2026-05-07 23:59 | 43.79359 | -79.55336 | 5714 ft | 236 kts | 343° |
| 2026-05-07 23:59 | 43.80887 | -79.56151 | 6354 ft | 236 kts | 335° |
| 2026-05-08 00:00 | 43.82489 | -79.56687 | 6980 ft | 241 kts | 350° |
| 2026-05-08 00:00 | 43.84170 | -79.56711 | 7459 ft | 242 kts | 357° |
| 2026-05-08 00:00 | 43.85848 | -79.56710 | 7847 ft | 241 kts | 352° |
| 2026-05-08 00:00 | 43.87521 | -79.56914 | 8180 ft | 242 kts | 348° |
| 2026-05-08 00:01 | 43.89209 | -79.57187 | 8510 ft | 245 kts | 348° |
| 2026-05-08 00:01 | 43.90912 | -79.57387 | 8887 ft | 247 kts | 350° |
| 2026-05-08 00:01 | 43.92647 | -79.57546 | 9181 ft | 253 kts | 350° |
| 2026-05-08 00:01 | 43.94425 | -79.57731 | 9456 ft | 259 kts | 349° |
| 2026-05-08 00:02 | 43.96245 | -79.57944 | 9742 ft | 265 kts | 348° |
| 2026-05-08 00:02 | 43.98106 | -79.58160 | 10000 ft | 272 kts | 349° |
| 2026-05-08 00:02 | 44.00019 | -79.58370 | 10264 ft | 279 kts | 349° |
| 2026-05-08 00:02 | 44.01998 | -79.58384 | 10421 ft | 295 kts | 2° |
| 2026-05-08 00:03 | 44.04056 | -79.57656 | 10524 ft | 319 kts | 15° |
| 2026-05-08 00:03 | 44.06183 | -79.56443 | 10666 ft | 341 kts | 20° |
| 2026-05-08 00:03 | 44.08402 | -79.55038 | 10789 ft | 360 kts | 20° |
| 2026-05-08 00:03 | 44.10755 | -79.53625 | 10917 ft | 377 kts | 18° |
| 2026-05-08 00:04 | 44.13239 | -79.52308 | 11237 ft | 386 kts | 15° |
| 2026-05-08 00:04 | 44.15789 | -79.51099 | 11913 ft | 386 kts | 14° |
| 2026-05-08 00:04 | 44.18338 | -79.49894 | 12553 ft | 389 kts | 19° |
| 2026-05-08 00:04 | 44.20715 | -79.48022 | 13156 ft | 398 kts | 33° |
| 2026-05-08 00:05 | 44.22898 | -79.45614 | 13728 ft | 401 kts | 33° |
| 2026-05-08 00:05 | 44.25298 | -79.43684 | 14236 ft | 398 kts | 17° |
| 2026-05-08 00:05 | 44.27958 | -79.42745 | 14770 ft | 393 kts | 2° |
| 2026-05-08 00:05 | 44.30677 | -79.42574 | 15271 ft | 393 kts | 357° |
| 2026-05-08 00:06 | 44.33425 | -79.42513 | 15795 ft | 396 kts | 357° |
| 2026-05-08 00:06 | 44.36192 | -79.42225 | 16310 ft | 403 kts | 6° |
| 2026-05-08 00:06 | 44.38898 | -79.41073 | 16833 ft | 412 kts | 22° |
| 2026-05-08 00:06 | 44.41390 | -79.39018 | 17359 ft | 419 kts | 33° |
| 2026-05-08 00:07 | 44.43691 | -79.36486 | 17888 ft | 423 kts | 37° |
| 2026-05-08 00:07 | 44.45972 | -79.33869 | 18374 ft | 425 kts | 35° |
| 2026-05-08 00:07 | 44.48372 | -79.31432 | 18841 ft | 426 kts | 30° |
| 2026-05-08 00:07 | 44.50900 | -79.29264 | 19341 ft | 426 kts | 27° |
| 2026-05-08 00:08 | 44.53502 | -79.27273 | 19797 ft | 427 kts | 25° |
| 2026-05-08 00:08 | 44.56137 | -79.25306 | 20240 ft | 430 kts | 26° |
| 2026-05-08 00:08 | 44.58756 | -79.23261 | 20695 ft | 433 kts | 27° |
| 2026-05-08 00:08 | 44.61357 | -79.21088 | 21153 ft | 436 kts | 29° |
| 2026-05-08 00:09 | 44.63933 | -79.18835 | 21596 ft | 438 kts | 30° |
| 2026-05-08 00:09 | 44.66517 | -79.16542 | 22046 ft | 441 kts | 30° |
| 2026-05-08 00:09 | 44.69125 | -79.14256 | 22517 ft | 443 kts | 29° |
| 2026-05-08 00:09 | 44.71727 | -79.12027 | 22942 ft | 445 kts | 28° |
| 2026-05-08 00:10 | 44.74389 | -79.09787 | 23397 ft | 448 kts | 28° |
| 2026-05-08 00:10 | 44.77080 | -79.07536 | 23778 ft | 450 kts | 28° |
| 2026-05-08 00:10 | 44.79777 | -79.05267 | 24121 ft | 454 kts | 28° |
| 2026-05-08 00:10 | 44.82487 | -79.02964 | 24470 ft | 457 kts | 28° |
| 2026-05-08 00:11 | 44.85212 | -79.00624 | 24808 ft | 460 kts | 29° |
| 2026-05-08 00:11 | 44.87954 | -78.98259 | 25155 ft | 463 kts | 29° |
| 2026-05-08 00:11 | 44.90713 | -78.95872 | 25493 ft | 467 kts | 29° |
| 2026-05-08 00:11 | 44.93482 | -78.93454 | 25827 ft | 470 kts | 29° |
| 2026-05-08 00:12 | 44.96265 | -78.91008 | 26156 ft | 473 kts | 29° |
| 2026-05-08 00:12 | 44.99064 | -78.88541 | 26480 ft | 476 kts | 29° |
| 2026-05-08 00:12 | 45.01882 | -78.86061 | 26803 ft | 479 kts | 29° |
| 2026-05-08 00:12 | 45.04716 | -78.83573 | 27161 ft | 481 kts | 29° |
| 2026-05-08 00:13 | 45.07572 | -78.81070 | 27477 ft | 484 kts | 29° |
| 2026-05-08 00:13 | 45.10444 | -78.78551 | 27773 ft | 487 kts | 29° |
| 2026-05-08 00:13 | 45.13333 | -78.76011 | 28085 ft | 490 kts | 29° |
| 2026-05-08 00:13 | 45.16237 | -78.73450 | 28391 ft | 493 kts | 29° |
| 2026-05-08 00:14 | 45.19157 | -78.70870 | 28707 ft | 496 kts | 29° |
| 2026-05-08 00:14 | 45.22090 | -78.68273 | 29078 ft | 498 kts | 29° |
| 2026-05-08 00:14 | 45.25018 | -78.65681 | 29582 ft | 497 kts | 29° |
| 2026-05-08 00:14 | 45.27952 | -78.63082 | 30026 ft | 497 kts | 29° |
| 2026-05-08 00:15 | 45.30886 | -78.60483 | 30385 ft | 497 kts | 29° |
| 2026-05-08 00:15 | 45.33818 | -78.57879 | 30672 ft | 499 kts | 29° |
| 2026-05-08 00:15 | 45.36771 | -78.55254 | 30815 ft | 502 kts | 29° |
| 2026-05-08 00:15 | 45.39735 | -78.52615 | 30871 ft | 502 kts | 29° |
| 2026-05-08 00:16 | 45.45639 | -78.47346 | 30900 ft | 500 kts | 29° |
| 2026-05-08 00:16 | 45.51521 | -78.42057 | 30906 ft | 500 kts | 31° |
| 2026-05-08 00:17 | 45.54238 | -78.39040 | 30874 ft | 503 kts | 43° |
| 2026-05-08 00:17 | 45.56463 | -78.35200 | 30874 ft | 505 kts | 56° |
| 2026-05-08 00:17 | 45.57999 | -78.30695 | 30901 ft | 506 kts | 71° |
| 2026-05-08 00:17 | 45.58995 | -78.25884 | 30952 ft | 507 kts | 73° |
| 2026-05-08 00:18 | 45.61435 | -78.16435 | 30906 ft | 507 kts | 63° |
| 2026-05-08 00:18 | 45.64554 | -78.07384 | 30898 ft | 508 kts | 63° |
| 2026-05-08 00:19 | 45.67605 | -77.98248 | 30901 ft | 509 kts | 63° |
| 2026-05-08 00:19 | 45.70652 | -77.89112 | 30896 ft | 509 kts | 63° |
| 2026-05-08 00:20 | 45.73719 | -77.80002 | 30898 ft | 508 kts | 63° |
| 2026-05-08 00:20 | 45.76772 | -77.70889 | 30892 ft | 507 kts | 63° |
| 2026-05-08 00:21 | 45.79819 | -77.61764 | 30882 ft | 507 kts | 63° |
| 2026-05-08 00:21 | 45.82863 | -77.52641 | 30878 ft | 507 kts | 63° |
| 2026-05-08 00:22 | 45.85896 | -77.43516 | 30871 ft | 507 kts | 63° |
| 2026-05-08 00:22 | 45.88925 | -77.34380 | 30874 ft | 506 kts | 63° |
| 2026-05-08 00:23 | 45.91933 | -77.25261 | 30870 ft | 505 kts | 63° |
| 2026-05-08 00:23 | 45.94935 | -77.16114 | 30871 ft | 507 kts | 64° |
| 2026-05-08 00:24 | 45.97940 | -77.06943 | 30873 ft | 507 kts | 64° |
| 2026-05-08 00:24 | 46.00944 | -76.97757 | 30873 ft | 507 kts | 64° |
| 2026-05-08 00:25 | 46.03936 | -76.88564 | 30870 ft | 507 kts | 64° |
| 2026-05-08 00:25 | 46.06914 | -76.79359 | 30865 ft | 507 kts | 64° |
| 2026-05-08 00:26 | 46.09903 | -76.70118 | 30864 ft | 509 kts | 64° |
| 2026-05-08 00:26 | 46.12866 | -76.60910 | 30864 ft | 510 kts | 64° |
| 2026-05-08 00:27 | 46.15854 | -76.51601 | 30864 ft | 510 kts | 64° |
| 2026-05-08 00:27 | 46.18828 | -76.42300 | 30862 ft | 509 kts | 64° |
| 2026-05-08 00:28 | 46.21787 | -76.33016 | 30860 ft | 509 kts | 64° |
| 2026-05-08 00:28 | 46.24731 | -76.23697 | 30853 ft | 511 kts | 64° |
| 2026-05-08 00:29 | 46.27690 | -76.14340 | 30853 ft | 512 kts | 64° |
| 2026-05-08 00:29 | 46.30630 | -76.05039 | 30854 ft | 512 kts | 64° |
| 2026-05-08 00:30 | 46.33568 | -75.95668 | 30857 ft | 511 kts | 64° |
| 2026-05-08 00:30 | 46.36492 | -75.86318 | 30851 ft | 509 kts | 64° |
| 2026-05-08 00:31 | 46.39407 | -75.76971 | 30852 ft | 511 kts | 64° |
| 2026-05-08 00:31 | 46.42336 | -75.67534 | 30843 ft | 513 kts | 64° |
| 2026-05-08 00:32 | 46.45257 | -75.58105 | 30843 ft | 513 kts | 65° |